createdAt,value
2018-08-30T00:01:14.399Z,14.83
2018-08-30T00:03:50.535Z,15.18
2018-08-30T00:06:20.234Z,13.30
2018-08-30T00:08:50.056Z,12.98
2018-08-30T00:11:18.818Z,11.48
2018-08-30T00:13:47.714Z,12.58
2018-08-30T00:16:16.957Z,16.00
2018-08-30T00:18:45.135Z,13.55
2018-08-30T00:21:13.440Z,13.88
2018-08-30T00:23:41.780Z,13.68
2018-08-30T00:26:10.554Z,13.98
2018-08-30T00:28:38.827Z,12.78
2018-08-30T00:31:08.041Z,17.55
2018-08-30T00:33:36.279Z,12.50
2018-08-30T00:36:05.583Z,13.35
2018-08-30T00:38:46.660Z,11.65
2018-08-30T00:41:27.279Z,16.82
2018-08-30T00:43:58.451Z,12.63
2018-08-30T00:46:39.453Z,12.40
2018-08-30T00:49:20.077Z,13.83
2018-08-30T00:51:48.321Z,16.65
2018-08-30T00:54:16.547Z,12.13
2018-08-30T00:56:57.083Z,13.98
2018-08-30T01:01:06.847Z,14.58
2018-08-30T01:03:47.057Z,13.03
2018-08-30T01:06:27.666Z,12.37
2018-08-30T01:09:08.262Z,16.82
2018-08-30T01:11:48.741Z,13.13
2018-08-30T01:14:29.396Z,15.13
2018-08-30T01:17:09.927Z,12.35
2018-08-30T01:19:50.605Z,14.28
2018-08-30T01:22:31.102Z,13.13
2018-08-30T01:25:11.669Z,15.88
2018-08-30T01:27:52.554Z,13.00
2018-08-30T01:30:20.752Z,13.13
2018-08-30T01:33:01.144Z,12.28
2018-08-30T01:35:29.331Z,13.78
2018-08-30T01:38:09.750Z,13.40
2018-08-30T01:40:37.975Z,15.72
2018-08-30T01:43:18.147Z,13.22
2018-08-30T01:45:58.853Z,13.45
2018-08-30T01:48:39.598Z,15.00
2018-08-30T01:51:20.292Z,12.55
2018-08-30T01:53:55.583Z,12.45
2018-08-30T01:56:36.522Z,13.78
2018-08-30T01:59:04.764Z,11.75
2018-08-30T02:01:33.013Z,13.10
2018-08-30T02:04:01.925Z,15.32
2018-08-30T02:06:30.127Z,15.38
2018-08-30T02:09:10.335Z,14.85
2018-08-30T02:11:38.563Z,13.93
2018-08-30T02:14:18.834Z,13.48
2018-08-30T02:16:48.221Z,13.18
2018-08-30T02:19:28.388Z,12.65
2018-08-30T02:22:08.906Z,15.35
2018-08-30T02:24:49.548Z,13.15
2018-08-30T02:27:18.875Z,13.30
2018-08-30T02:29:47.219Z,13.53
2018-08-30T02:32:18.773Z,13.70
2018-08-30T02:34:59.322Z,16.25
2018-08-30T02:37:31.517Z,13.62
2018-08-30T02:39:59.723Z,12.93
2018-08-30T02:42:28.200Z,14.73
2018-08-30T02:45:02.001Z,13.88
2018-08-30T02:47:30.208Z,12.78
2018-08-30T02:50:11.196Z,13.10
2018-08-30T02:52:51.701Z,18.42
2018-08-30T02:55:21.953Z,12.88
2018-08-30T02:57:50.133Z,14.65
2018-08-30T03:00:24.818Z,18.48
2018-08-30T03:03:05.473Z,18.90
2018-08-30T03:05:35.621Z,12.93
2018-08-30T03:08:04.507Z,13.00
2018-08-30T03:10:45.555Z,12.50
2018-08-30T03:13:26.324Z,15.50
2018-08-30T03:16:06.923Z,15.20
2018-08-30T03:18:42.163Z,13.43
2018-08-30T03:21:23.209Z,13.05
2018-08-30T03:23:51.417Z,15.13
2018-08-30T03:26:31.744Z,13.35
2018-08-30T03:29:12.275Z,15.90
2018-08-30T03:31:41.394Z,13.48
2018-08-30T03:34:10.485Z,14.20
2018-08-30T03:36:38.799Z,18.57
2018-08-30T03:39:19.491Z,15.85
2018-08-30T03:42:00.278Z,13.72
2018-08-30T03:44:28.516Z,13.57
2018-08-30T03:47:09.680Z,14.70
2018-08-30T03:49:38.126Z,15.73
2018-08-30T03:52:19.124Z,15.80
2018-08-30T03:54:59.810Z,13.32
2018-08-30T03:57:40.471Z,19.90
2018-08-30T04:00:21.026Z,11.38
2018-08-30T04:03:01.533Z,16.25
2018-08-30T04:05:42.329Z,17.65
2018-08-30T04:08:22.821Z,18.60
2018-08-30T04:10:51.024Z,14.93
2018-08-30T04:13:19.937Z,13.25
2018-08-30T04:16:00.856Z,13.85
2018-08-30T04:18:29.126Z,14.20
2018-08-30T04:21:09.399Z,19.20
2018-08-30T04:23:37.704Z,14.07
2018-08-30T04:26:06.100Z,13.93
2018-08-30T04:28:34.769Z,20.82
2018-08-30T04:31:15.710Z,17.48
2018-08-30T04:33:43.933Z,13.65
2018-08-30T04:36:12.150Z,16.45
2018-08-30T04:38:40.359Z,17.40
2018-08-30T04:41:18.075Z,15.53
2018-08-30T04:43:46.291Z,15.30
2018-08-30T04:46:14.678Z,15.03
2018-08-30T04:48:42.870Z,14.87
2018-08-30T04:51:11.033Z,14.53
2018-08-30T04:53:39.285Z,18.37
2018-08-30T04:56:20.371Z,16.40
2018-08-30T04:59:01.007Z,20.10
2018-08-30T05:01:33.422Z,14.55
2018-08-30T05:04:13.886Z,18.40
2018-08-30T05:06:54.609Z,16.73
2018-08-30T05:09:30.341Z,20.72
2018-08-30T05:12:00.621Z,21.07
2018-08-30T05:14:29.062Z,21.45
2018-08-30T05:17:09.375Z,20.25
2018-08-30T05:19:39.875Z,19.98
2018-08-30T05:22:08.101Z,19.17
2018-08-30T05:24:36.297Z,23.47
2018-08-30T05:27:12.885Z,17.90
2018-08-30T05:29:41.317Z,36.60
2018-08-30T05:32:09.514Z,19.57
2018-08-30T05:34:44.208Z,23.27
2018-08-30T05:37:12.432Z,18.95
2018-08-30T05:39:40.651Z,19.00
2018-08-30T05:42:10.456Z,18.62
2018-08-30T05:44:46.405Z,18.15
2018-08-30T05:47:14.829Z,19.87
2018-08-30T05:49:43.687Z,19.70
2018-08-30T05:52:11.920Z,14.78
2018-08-30T05:54:41.255Z,18.12
2018-08-30T05:57:09.927Z,15.08
2018-08-30T05:59:51.069Z,18.30
2018-08-30T06:02:31.834Z,17.87
2018-08-30T06:05:00.429Z,20.23
2018-08-30T06:07:28.687Z,22.60
2018-08-30T06:10:09.090Z,18.77
2018-08-30T06:12:37.751Z,19.75
2018-08-30T06:15:12.929Z,15.55
2018-08-30T06:17:41.235Z,15.08
2018-08-30T06:20:21.830Z,17.20
2018-08-30T06:22:50.687Z,18.98
2018-08-30T06:25:31.287Z,17.40
2018-08-30T06:28:12.024Z,21.62
2018-08-30T06:30:40.334Z,21.90
2018-08-30T06:33:20.569Z,19.57
2018-08-30T06:35:52.871Z,21.17
2018-08-30T06:38:23.074Z,18.00
2018-08-30T06:41:03.697Z,14.87
2018-08-30T06:43:44.340Z,17.23
2018-08-30T06:46:25.061Z,17.75
2018-08-30T06:49:05.974Z,18.25
2018-08-30T06:51:34.323Z,21.95
2018-08-30T06:54:15.320Z,15.45
2018-08-30T06:56:55.898Z,19.00
2018-08-30T06:59:24.101Z,15.58
2018-08-30T07:02:04.368Z,15.05
2018-08-30T07:04:45.519Z,19.67
2018-08-30T07:07:26.823Z,14.70
2018-08-30T07:10:07.443Z,15.32
2018-08-30T07:12:48.045Z,18.02
2018-08-30T07:15:28.691Z,17.85
2018-08-30T07:18:09.479Z,17.77
2018-08-30T07:20:50.100Z,20.57
2018-08-30T07:23:30.749Z,20.10
2018-08-30T07:26:11.324Z,18.82
2018-08-30T07:28:51.995Z,19.35
2018-08-30T07:31:20.313Z,18.75
2018-08-30T07:34:01.195Z,21.40
2018-08-30T07:36:42.004Z,19.35
2018-08-30T07:46:09.711Z,22.27
2018-08-30T07:48:50.389Z,20.63
2018-08-30T07:51:18.651Z,20.90
2018-08-30T07:53:46.900Z,20.60
2018-08-30T07:56:16.381Z,20.35
2018-08-30T07:58:45.437Z,25.82
2018-08-30T08:01:13.624Z,19.05
2018-08-30T08:03:46.257Z,20.68
2018-08-30T08:06:27.008Z,22.75
2018-08-30T08:09:07.721Z,21.45
2018-08-30T08:11:48.504Z,21.55
2018-08-30T08:14:29.264Z,23.32
2018-08-30T08:17:09.903Z,18.80
2018-08-30T08:19:50.467Z,23.18
2018-08-30T08:22:31.273Z,23.02
2018-08-30T08:25:12.108Z,22.82
2018-08-30T08:27:40.346Z,23.18
2018-08-30T08:30:08.633Z,23.77
2018-08-30T08:32:49.695Z,25.60
2018-08-30T08:35:30.523Z,25.90
2018-08-30T08:38:11.096Z,25.68
2018-08-30T08:40:39.652Z,24.87
2018-08-30T08:43:20.450Z,29.15
2018-08-30T08:46:01.072Z,27.58
2018-08-30T08:48:29.273Z,23.22
2018-08-30T08:51:10.283Z,25.23
2018-08-30T08:53:50.868Z,28.30
2018-08-30T08:56:31.459Z,29.23
2018-08-30T08:59:12.100Z,29.23
2018-08-30T09:01:40.365Z,21.48
2018-08-30T09:04:21.501Z,24.65
2018-08-30T09:06:55.653Z,26.48
2018-08-30T09:09:25.958Z,28.62
2018-08-30T09:12:00.637Z,28.87
2018-08-30T09:14:29.590Z,32.40
2018-08-30T09:16:57.867Z,33.78
2018-08-30T09:19:27.024Z,31.95
2018-08-30T09:21:55.525Z,24.05
2018-08-30T09:24:23.725Z,25.25
2018-08-30T09:26:52.074Z,23.98
2018-08-30T09:29:20.242Z,26.45
2018-08-30T09:31:48.565Z,29.35
2018-08-30T09:34:16.798Z,24.75
2018-08-30T09:36:45.011Z,25.45
2018-08-30T09:39:13.242Z,20.60
2018-08-30T09:41:41.475Z,26.48
2018-08-30T09:44:15.665Z,20.85
2018-08-30T09:46:44.881Z,25.20
2018-08-30T09:49:13.152Z,25.52
2018-08-30T09:51:46.359Z,32.25
2018-08-30T09:54:14.559Z,26.90
2018-08-30T09:56:42.783Z,22.48
2018-08-30T09:59:10.950Z,28.30
2018-08-30T10:01:45.970Z,29.98
2018-08-30T10:04:14.169Z,28.83
2018-08-30T10:06:43.007Z,27.93
2018-08-30T10:09:23.337Z,29.75
2018-08-30T10:12:03.959Z,30.15
2018-08-30T10:14:35.216Z,32.73
2018-08-30T10:17:15.361Z,32.15
2018-08-30T10:19:44.584Z,33.08
2018-08-30T10:22:25.713Z,35.65
2018-08-30T10:24:57.633Z,32.85
2018-08-30T10:27:37.945Z,29.67
2018-08-30T10:30:06.162Z,31.60
2018-08-30T10:32:35.804Z,31.48
2018-08-30T10:35:16.129Z,28.00
2018-08-30T10:37:56.708Z,32.83
2018-08-30T10:40:24.912Z,34.38
2018-08-30T10:43:05.151Z,33.05
2018-08-30T10:45:33.372Z,29.65
2018-08-30T10:48:01.632Z,34.40
2018-08-30T10:50:29.863Z,30.70
2018-08-30T10:53:10.009Z,26.48
2018-08-30T10:55:50.642Z,32.93
2018-08-30T10:58:31.300Z,29.20
2018-08-30T11:01:11.988Z,40.55
2018-08-30T11:03:52.601Z,32.23
2018-08-30T11:06:20.862Z,36.58
2018-08-30T11:09:02.074Z,33.48
2018-08-30T11:11:42.582Z,34.95
2018-08-30T11:14:11.834Z,33.88
2018-08-30T11:16:51.940Z,30.68
2018-08-30T11:19:20.231Z,31.97
2018-08-30T11:21:48.437Z,28.47
2018-08-30T11:24:16.760Z,31.48
2018-08-30T11:26:57.104Z,34.83
2018-08-30T11:29:37.642Z,27.22
2018-08-30T11:32:18.321Z,30.25
2018-08-30T11:34:58.912Z,31.80
2018-08-30T11:37:39.493Z,34.90
2018-08-30T11:40:19.950Z,29.42
2018-08-30T11:42:48.213Z,27.67
2018-08-30T11:45:16.405Z,30.40
2018-08-30T11:47:56.916Z,31.60
2018-08-30T11:50:37.519Z,21.55
2018-08-30T11:53:18.249Z,27.67
2018-08-30T11:55:58.746Z,20.43
2018-08-30T11:58:30.376Z,23.50
2018-08-30T12:00:58.650Z,21.77
2018-08-30T12:03:39.101Z,18.30
2018-08-30T12:06:07.359Z,16.60
2018-08-30T12:08:48.290Z,23.77
2018-08-30T12:11:16.602Z,16.95
2018-08-30T12:13:44.785Z,18.35
2018-08-30T12:16:13.054Z,13.78
2018-08-30T12:18:47.365Z,14.73
2018-08-30T12:21:15.568Z,10.80
2018-08-30T12:23:56.543Z,12.30
2018-08-30T12:26:37.280Z,12.20
2018-08-30T12:29:05.633Z,11.68
2018-08-30T12:31:46.660Z,9.70
2018-08-30T12:34:27.415Z,10.20
2018-08-30T12:37:08.076Z,9.40
2018-08-30T12:39:48.808Z,11.50
2018-08-30T12:42:29.347Z,10.95
2018-08-30T12:45:09.991Z,10.53
2018-08-30T12:47:50.462Z,13.15
2018-08-30T12:50:31.292Z,11.68
2018-08-30T12:53:03.487Z,11.57
2018-08-30T12:55:44.827Z,12.70
2018-08-30T12:58:13.217Z,10.20
2018-08-30T13:00:53.943Z,13.43
2018-08-30T13:03:29.908Z,9.80
2018-08-30T13:06:11.020Z,12.40
2018-08-30T13:08:39.275Z,14.73
2018-08-30T13:11:07.754Z,13.75
2018-08-30T13:13:35.738Z,13.70
2018-08-30T13:16:03.947Z,18.52
2018-08-30T13:18:44.954Z,14.23
2018-08-30T13:21:13.239Z,15.40
2018-08-30T13:23:41.400Z,13.35
2018-08-30T13:26:22.419Z,13.70
2018-08-30T13:29:03.229Z,15.05
2018-08-30T13:31:31.602Z,14.43
2018-08-30T13:34:12.381Z,12.37
2018-08-30T13:36:40.853Z,13.78
2018-08-30T13:39:21.289Z,14.95
2018-08-30T13:42:02.032Z,12.23
2018-08-30T13:44:42.512Z,12.35
2018-08-30T13:47:22.966Z,11.63
2018-08-30T13:50:03.606Z,12.50
2018-08-30T13:52:44.211Z,12.78
2018-08-30T13:55:24.720Z,12.13
2018-08-30T13:57:53.320Z,13.80
2018-08-30T14:00:21.828Z,14.70
2018-08-30T14:03:01.574Z,14.28
2018-08-30T14:05:29.976Z,17.05
2018-08-30T14:07:58.084Z,10.80
2018-08-30T14:10:38.517Z,12.10
2018-08-30T14:13:19.721Z,12.73
2018-08-30T14:15:47.727Z,12.35
2018-08-30T14:18:28.734Z,13.15
2018-08-30T14:21:09.374Z,17.05
2018-08-30T14:23:37.568Z,11.55
2018-08-30T14:26:18.598Z,12.98
2018-08-30T14:28:59.197Z,7.80
2018-08-30T14:31:40.472Z,10.58
2018-08-30T14:34:21.484Z,10.85
2018-08-30T14:36:49.807Z,14.75
2018-08-30T14:39:30.890Z,11.95
2018-08-30T14:42:11.472Z,14.43
2018-08-30T14:44:52.170Z,12.90
2018-08-30T14:47:33.018Z,20.75
2018-08-30T14:50:13.254Z,18.80
2018-08-30T14:52:41.632Z,15.45
2018-08-30T14:55:09.873Z,12.78
2018-08-30T14:57:50.388Z,13.88
2018-08-30T15:00:18.870Z,13.28
2018-08-30T15:02:59.819Z,16.02
2018-08-30T15:05:40.310Z,15.38
2018-08-30T15:08:12.337Z,13.70
2018-08-30T15:10:42.109Z,10.13
2018-08-30T15:13:23.203Z,13.60
2018-08-30T15:15:51.437Z,12.20
2018-08-30T15:18:32.395Z,13.20
2018-08-30T15:21:13.083Z,10.43
2018-08-30T15:23:53.705Z,14.85
2018-08-30T15:26:24.069Z,14.70
2018-08-30T15:29:05.420Z,14.33
2018-08-30T15:31:33.546Z,9.88
2018-08-30T15:34:14.299Z,10.93
2018-08-30T15:36:42.582Z,14.40
2018-08-30T15:39:11.420Z,13.72
2018-08-30T15:41:51.625Z,12.43
2018-08-30T15:44:19.882Z,18.67
2018-08-30T15:47:00.845Z,11.95
2018-08-30T15:49:29.931Z,13.08
2018-08-30T15:51:58.180Z,13.85
2018-08-30T15:54:29.121Z,13.28
2018-08-30T15:57:09.874Z,14.65
2018-08-30T15:59:50.319Z,15.93
2018-08-30T16:02:32.447Z,15.65
2018-08-30T16:05:12.903Z,11.30
2018-08-30T16:07:53.435Z,11.35
2018-08-30T16:10:34.138Z,14.68
2018-08-30T16:13:15.074Z,13.18
2018-08-30T16:15:43.233Z,19.00
2018-08-30T16:18:23.552Z,17.50
2018-08-30T16:20:51.822Z,14.83
2018-08-30T16:23:34.075Z,19.67
2018-08-30T16:26:03.433Z,14.73
2018-08-30T16:28:32.606Z,16.60
2018-08-30T16:31:12.813Z,14.10
2018-08-30T16:33:53.802Z,15.45
2018-08-30T16:36:23.410Z,16.00
2018-08-30T16:39:04.913Z,16.05
2018-08-30T16:41:33.418Z,14.53
2018-08-30T16:44:01.975Z,13.28
2018-08-30T16:46:30.240Z,12.63
2018-08-30T16:49:11.365Z,10.30
2018-08-30T16:51:39.757Z,11.95
2018-08-30T16:54:11.535Z,12.33
2018-08-30T16:56:52.350Z,11.57
2018-08-30T16:59:27.915Z,13.03
2018-08-30T17:02:08.696Z,13.25
2018-08-30T17:04:49.547Z,14.75
2018-08-30T17:07:30.202Z,10.10
2018-08-30T17:10:10.885Z,14.53
2018-08-30T17:12:51.433Z,8.85
2018-08-30T17:15:31.921Z,8.05
2018-08-30T17:18:12.465Z,13.18
2018-08-30T17:20:44.527Z,8.70
2018-08-30T17:23:24.902Z,10.70
2018-08-30T17:26:05.676Z,8.30
2018-08-30T17:28:46.424Z,9.48
2018-08-30T17:31:27.105Z,8.85
2018-08-30T17:33:55.406Z,8.45
2018-08-30T17:36:23.650Z,8.80
2018-08-30T17:38:52.026Z,9.68
2018-08-30T17:41:32.845Z,8.70
2018-08-30T17:44:13.394Z,8.85
2018-08-30T17:46:54.035Z,7.25
2018-08-30T17:49:22.803Z,10.18
2018-08-30T17:52:03.457Z,8.45
2018-08-30T17:54:33.702Z,8.48
2018-08-30T17:57:03.935Z,9.28
2018-08-30T17:59:51.508Z,10.78
2018-08-30T18:02:32.367Z,13.15
2018-08-30T18:05:00.718Z,11.10
2018-08-30T18:07:28.919Z,11.18
2018-08-30T18:09:57.160Z,14.87
2018-08-30T18:12:38.180Z,16.35
2018-08-30T18:15:13.557Z,13.90
2018-08-30T18:17:41.865Z,10.65
2018-08-30T18:20:10.335Z,16.73
2018-08-30T18:22:44.586Z,15.75
2018-08-30T18:25:12.808Z,11.88
2018-08-30T18:27:43.035Z,11.63
2018-08-30T18:30:11.908Z,14.80
2018-08-30T18:32:40.941Z,12.37
2018-08-30T18:35:14.247Z,8.98
2018-08-30T18:37:48.570Z,10.08
2018-08-30T18:40:29.293Z,10.98
2018-08-30T18:43:00.741Z,10.93
2018-08-30T18:45:41.702Z,11.18
2018-08-30T18:48:18.079Z,11.30
2018-08-30T18:50:59.155Z,9.05
2018-08-30T18:53:27.698Z,11.05
2018-08-30T18:56:08.840Z,10.95
2018-08-30T18:58:49.485Z,10.25
2018-08-30T19:01:30.327Z,8.73
2018-08-30T19:03:58.589Z,11.28
2018-08-30T19:06:39.502Z,11.65
2018-08-30T19:09:09.464Z,10.20
2018-08-30T19:11:49.936Z,12.00
2018-08-30T19:14:30.675Z,11.20
2018-08-30T19:17:10.338Z,9.60
2018-08-30T19:19:38.641Z,11.12
2018-08-30T19:22:19.610Z,11.50
2018-08-30T19:25:05.772Z,8.03
2018-08-30T19:27:46.925Z,11.22
2018-08-30T19:30:20.657Z,10.65
2018-08-30T19:33:01.358Z,10.60
2018-08-30T19:35:35.136Z,9.98
2018-08-30T19:38:15.764Z,11.10
2018-08-30T19:40:49.670Z,7.70
2018-08-30T19:43:30.105Z,7.28
2018-08-30T19:46:10.644Z,9.35
2018-08-30T19:48:51.225Z,10.32
2018-08-30T19:51:31.874Z,8.95
2018-08-30T19:54:12.350Z,9.88
2018-08-30T19:56:53.042Z,7.00
2018-08-30T19:59:21.897Z,7.90
2018-08-30T20:02:02.477Z,7.67
2018-08-30T20:04:32.989Z,6.25
2018-08-30T20:07:01.406Z,6.83
2018-08-30T20:09:42.591Z,7.55
2018-08-30T20:12:11.829Z,7.62
2018-08-30T20:14:41.545Z,6.33
2018-08-30T20:17:09.959Z,8.45
2018-08-30T20:19:41.875Z,5.95
2018-08-30T20:22:11.997Z,6.90
2018-08-30T20:24:44.173Z,9.70
2018-08-30T20:27:25.379Z,8.90
2018-08-30T20:30:06.050Z,8.53
2018-08-30T20:32:37.285Z,8.65
2018-08-30T20:35:05.570Z,7.03
2018-08-30T20:37:46.241Z,7.08
2018-08-30T20:40:14.649Z,8.35
2018-08-30T20:42:43.779Z,9.03
2018-08-30T20:45:15.570Z,9.85
2018-08-30T20:47:56.113Z,7.87
2018-08-30T20:50:36.634Z,8.63
2018-08-30T20:53:17.384Z,7.87
2018-08-30T20:55:57.977Z,10.60
2018-08-30T20:58:41.094Z,6.92
2018-08-30T21:01:22.243Z,22.22
2018-08-30T21:04:02.877Z,7.55
2018-08-30T21:06:31.702Z,5.20
2018-08-30T21:09:02.353Z,8.48
2018-08-30T21:11:30.571Z,11.03
2018-08-30T21:14:10.767Z,7.22
2018-08-30T21:16:51.538Z,6.35
2018-08-30T21:19:32.072Z,9.15
2018-08-30T21:22:00.311Z,6.70
2018-08-30T21:24:41.456Z,5.12
2018-08-30T21:27:22.052Z,6.00
2018-08-30T21:29:50.284Z,12.98
2018-08-30T21:32:18.667Z,6.45
2018-08-30T21:34:46.971Z,9.23
2018-08-30T21:37:27.785Z,15.05
2018-08-30T21:40:08.481Z,7.87
2018-08-30T21:42:36.774Z,6.80
2018-08-30T21:45:17.798Z,6.80
2018-08-30T21:47:46.386Z,9.73
2018-08-30T21:50:27.170Z,7.03
2018-08-30T21:53:07.966Z,8.30
2018-08-30T21:55:48.673Z,7.47
2018-08-30T21:58:29.175Z,7.37
2018-08-30T22:01:09.869Z,11.88
2018-08-30T22:03:50.380Z,5.90
2018-08-30T22:06:25.449Z,8.80
2018-08-30T22:08:53.925Z,25.48
2018-08-30T22:11:34.478Z,7.05
2018-08-30T22:14:15.202Z,5.60
2018-08-30T22:16:43.606Z,12.85
2018-08-30T22:19:24.588Z,5.80
2018-08-30T22:22:05.315Z,7.60
2018-08-30T22:24:45.776Z,10.70
2018-08-30T22:27:26.456Z,5.42
2018-08-30T22:30:07.176Z,15.78
2018-08-30T22:32:47.840Z,15.23
2018-08-30T22:35:28.266Z,7.55
2018-08-30T22:38:08.935Z,7.30
2018-08-30T22:40:49.661Z,3.60
2018-08-30T22:43:17.894Z,7.90
2018-08-30T22:45:59.014Z,8.60
2018-08-30T22:48:39.817Z,5.58
2018-08-30T22:51:20.533Z,7.15
2018-08-30T22:54:01.189Z,12.00
2018-08-30T22:56:29.443Z,4.53
2018-08-30T22:58:57.701Z,3.70
2018-08-30T23:01:38.294Z,1.70
2018-08-30T23:04:06.590Z,6.72
2018-08-30T23:06:47.621Z,6.22
2018-08-30T23:09:15.877Z,6.90
2018-08-30T23:11:57.428Z,4.67
2018-08-30T23:14:30.229Z,7.53
2018-08-30T23:17:04.362Z,13.55
2018-08-30T23:19:45.155Z,6.58
2018-08-30T23:22:14.418Z,9.98
2018-08-30T23:24:48.608Z,7.17
2018-08-30T23:27:16.926Z,4.67
2018-08-30T23:29:57.984Z,7.85
2018-08-30T23:32:26.259Z,18.02
2018-08-30T23:35:07.221Z,6.97
2018-08-30T23:37:47.725Z,9.80
2018-08-30T23:40:28.240Z,8.48
2018-08-30T23:43:09.064Z,8.08
2018-08-30T23:45:37.289Z,4.67
2018-08-30T23:48:18.309Z,15.00
2018-08-30T23:50:46.533Z,8.25
2018-08-30T23:53:14.786Z,7.45
2018-08-30T23:55:43.474Z,6.03
2018-08-30T23:58:24.020Z,5.90
